createdAt,value
2022-10-08T00:02:05.374Z,74
2022-10-08T00:04:36.867Z,74
2022-10-08T00:07:07.734Z,74
2022-10-08T00:09:38.892Z,74
2022-10-08T00:12:08.527Z,74
2022-10-08T00:14:39.310Z,75
2022-10-08T00:17:10.006Z,75
2022-10-08T00:19:41.060Z,74
2022-10-08T00:22:12.266Z,75
2022-10-08T00:24:43.937Z,73
2022-10-08T00:27:15.429Z,73
2022-10-08T00:29:47.140Z,74
2022-10-08T00:32:18.880Z,73
2022-10-08T00:34:50.195Z,73
2022-10-08T00:37:21.562Z,73
2022-10-08T00:39:52.739Z,72
2022-10-08T00:42:23.969Z,72
2022-10-08T00:44:55.342Z,72
2022-10-08T00:47:26.319Z,71
2022-10-08T00:49:57.876Z,70
2022-10-08T00:52:28.869Z,70
2022-10-08T00:55:00.056Z,70
2022-10-08T00:57:31.289Z,71
2022-10-08T01:00:00.996Z,71
2022-10-08T01:02:30.526Z,70
2022-10-08T01:05:01.512Z,70
2022-10-08T01:07:32.379Z,71
2022-10-08T01:10:02.960Z,71
2022-10-08T01:12:32.831Z,71
2022-10-08T01:15:03.347Z,71
2022-10-08T01:17:34.232Z,71
2022-10-08T01:20:05.533Z,72
2022-10-08T01:22:37.738Z,71
2022-10-08T01:25:09.588Z,70
2022-10-08T01:27:41.643Z,70
2022-10-08T01:30:11.051Z,71
2022-10-08T01:32:42.436Z,70
2022-10-08T01:35:13.590Z,71
2022-10-08T01:37:45.429Z,70
2022-10-08T01:40:16.428Z,71
2022-10-08T01:42:47.701Z,70
2022-10-08T01:45:18.249Z,68
2022-10-08T01:47:51.397Z,68
2022-10-08T01:50:22.626Z,68
2022-10-08T01:52:54.294Z,69
2022-10-08T01:55:25.357Z,68
2022-10-08T01:57:56.462Z,69
2022-10-08T02:00:27.807Z,69
2022-10-08T02:03:00.249Z,69
2022-10-08T02:05:31.217Z,67
2022-10-08T02:08:02.061Z,67
2022-10-08T02:10:33.338Z,68
2022-10-08T02:13:04.882Z,68
2022-10-08T02:15:34.380Z,67
2022-10-08T02:18:05.074Z,68
2022-10-08T02:20:36.776Z,67
2022-10-08T02:23:07.919Z,67
2022-10-08T02:25:38.473Z,67
2022-10-08T02:28:07.746Z,68
2022-10-08T02:30:38.376Z,66
2022-10-08T02:33:10.527Z,66
2022-10-08T02:35:41.566Z,67
2022-10-08T02:38:12.269Z,66
2022-10-08T02:40:42.902Z,66
2022-10-08T02:43:14.710Z,66
2022-10-08T02:45:47.091Z,66
2022-10-08T02:48:18.959Z,66
2022-10-08T02:50:49.310Z,66
2022-10-08T02:53:20.188Z,66
2022-10-08T02:55:50.431Z,66
2022-10-08T02:58:21.343Z,66
2022-10-08T03:00:54.330Z,66
2022-10-08T03:03:25.345Z,66
2022-10-08T03:06:16.780Z,66
2022-10-08T03:08:48.400Z,66
2022-10-08T03:11:19.603Z,67
2022-10-08T03:13:51.606Z,66
2022-10-08T03:16:22.459Z,66
2022-10-08T03:18:51.619Z,66
2022-10-08T03:21:22.548Z,66
2022-10-08T03:23:53.663Z,65
2022-10-08T03:26:25.565Z,66
2022-10-08T03:28:56.896Z,66
2022-10-08T03:31:28.386Z,65
2022-10-08T03:33:57.670Z,66
2022-10-08T03:36:30.807Z,65
2022-10-08T03:39:03.357Z,65
2022-10-08T03:41:34.479Z,65
2022-10-08T03:44:06.784Z,65
2022-10-08T03:46:38.049Z,64
2022-10-08T03:49:09.462Z,65
2022-10-08T03:51:40.529Z,64
2022-10-08T03:54:10.765Z,64
2022-10-08T03:56:41.651Z,64
2022-10-08T03:59:13.290Z,64
2022-10-08T04:01:44.503Z,64
2022-10-08T04:04:16.221Z,64
2022-10-08T04:06:48.968Z,63
2022-10-08T04:09:19.538Z,63
2022-10-08T04:11:50.762Z,64
2022-10-08T04:14:21.559Z,63
2022-10-08T04:16:53.333Z,63
2022-10-08T04:19:24.401Z,63
2022-10-08T04:21:56.124Z,63
2022-10-08T04:24:27.185Z,63
2022-10-08T04:26:58.465Z,62
2022-10-08T04:29:29.738Z,63
2022-10-08T04:32:01.042Z,63
2022-10-08T04:34:30.763Z,63
2022-10-08T04:37:02.418Z,63
2022-10-08T04:39:33.001Z,63
2022-10-08T04:42:03.520Z,63
2022-10-08T04:44:34.722Z,63
2022-10-08T04:47:06.613Z,63
2022-10-08T04:49:38.600Z,62
2022-10-08T04:52:10.065Z,62
2022-10-08T04:54:40.899Z,62
2022-10-08T04:57:12.561Z,62
2022-10-08T04:59:59.640Z,62
2022-10-08T05:02:16.888Z,62
2022-10-08T05:04:48.201Z,61
2022-10-08T05:07:19.646Z,61
2022-10-08T05:09:51.287Z,61
2022-10-08T05:12:22.273Z,62
2022-10-08T05:14:53.397Z,62
2022-10-08T05:17:24.334Z,62
2022-10-08T05:19:56.011Z,62
2022-10-08T05:22:26.550Z,61
2022-10-08T05:24:58.243Z,61
2022-10-08T05:27:29.295Z,62
2022-10-08T05:29:59.988Z,61
2022-10-08T05:32:30.788Z,61
2022-10-08T05:35:05.577Z,62
2022-10-08T05:37:36.749Z,61
2022-10-08T05:40:08.177Z,61
2022-10-08T05:42:39.353Z,61
2022-10-08T05:45:11.555Z,61
2022-10-08T05:47:43.245Z,60
2022-10-08T05:50:14.326Z,60
2022-10-08T05:52:45.567Z,60
2022-10-08T05:55:16.727Z,60
2022-10-08T05:57:47.764Z,60
2022-10-08T06:00:19.111Z,60
2022-10-08T06:02:51.040Z,60
2022-10-08T06:05:20.235Z,59
2022-10-08T06:07:52.791Z,59
2022-10-08T06:10:24.057Z,59
2022-10-08T06:12:54.793Z,59
2022-10-08T06:15:25.889Z,58
2022-10-08T06:17:56.927Z,58
2022-10-08T06:20:31.924Z,58
2022-10-08T06:23:00.811Z,58
2022-10-08T06:25:31.240Z,58
2022-10-08T06:28:02.650Z,58
2022-10-08T06:30:33.945Z,57
2022-10-08T06:33:04.690Z,58
2022-10-08T06:35:35.553Z,58
2022-10-08T06:38:07.061Z,57
2022-10-08T06:40:38.043Z,57
2022-10-08T06:43:08.879Z,58
2022-10-08T06:45:39.699Z,57
2022-10-08T06:48:10.463Z,57
2022-10-08T06:50:40.088Z,57
2022-10-08T06:53:13.453Z,56
2022-10-08T06:55:44.471Z,57
2022-10-08T06:58:15.761Z,56
2022-10-08T07:00:46.594Z,56
2022-10-08T07:03:20.732Z,56
2022-10-08T07:05:51.699Z,56
2022-10-08T07:08:23.279Z,56
2022-10-08T07:10:53.906Z,56
2022-10-08T07:13:24.677Z,56
2022-10-08T07:15:57.361Z,57
2022-10-08T07:18:28.665Z,58
2022-10-08T07:20:58.732Z,56
2022-10-08T07:23:29.614Z,57
2022-10-08T07:26:00.454Z,55
2022-10-08T07:28:31.333Z,56
2022-10-08T07:31:01.895Z,55
2022-10-08T07:33:32.387Z,55
2022-10-08T07:36:03.443Z,55
2022-10-08T07:38:36.564Z,55
2022-10-08T07:41:07.529Z,55
2022-10-08T07:43:38.470Z,55
2022-10-08T07:46:10.892Z,55
2022-10-08T07:48:41.745Z,55
2022-10-08T07:51:12.324Z,55
2022-10-08T07:53:43.678Z,55
2022-10-08T07:56:15.103Z,54
2022-10-08T07:58:45.657Z,54
2022-10-08T08:01:17.962Z,54
2022-10-08T08:03:49.059Z,54
2022-10-08T08:06:20.746Z,54
2022-10-08T08:08:52.031Z,53
2022-10-08T08:11:21.932Z,54
2022-10-08T08:13:55.487Z,53
2022-10-08T08:16:26.829Z,53
2022-10-08T08:18:57.691Z,54
2022-10-08T08:21:28.628Z,52
2022-10-08T08:23:59.398Z,53
2022-10-08T08:26:31.004Z,53
2022-10-08T08:29:02.247Z,51
2022-10-08T08:31:33.683Z,51
2022-10-08T08:34:04.735Z,51
2022-10-08T08:36:38.694Z,51
2022-10-08T08:39:10.542Z,51
2022-10-08T08:41:41.451Z,51
2022-10-08T08:44:13.580Z,51
2022-10-08T08:46:44.664Z,51
2022-10-08T08:49:16.324Z,50
2022-10-08T08:51:47.839Z,50
2022-10-08T08:54:19.018Z,50
2022-10-08T08:56:49.949Z,50
2022-10-08T08:59:21.460Z,50
2022-10-08T09:01:52.703Z,49
2022-10-08T09:04:23.360Z,49
2022-10-08T09:06:53.953Z,48
2022-10-08T09:09:26.261Z,47
2022-10-08T09:11:58.586Z,48
2022-10-08T09:14:29.127Z,48
2022-10-08T09:17:01.559Z,48
2022-10-08T09:19:32.290Z,48
2022-10-08T09:22:01.858Z,47
2022-10-08T09:24:34.385Z,47
2022-10-08T09:27:05.337Z,46
2022-10-08T09:29:35.580Z,47
2022-10-08T09:32:06.627Z,47
2022-10-08T09:34:40.170Z,47
2022-10-08T09:37:11.873Z,47
2022-10-08T09:39:43.411Z,48
2022-10-08T09:42:16.466Z,47
2022-10-08T09:44:54.001Z,47
2022-10-08T09:47:24.233Z,46
2022-10-08T09:49:56.140Z,47
2022-10-08T09:52:32.838Z,47
2022-10-08T09:55:03.942Z,47
2022-10-08T09:57:33.178Z,46
2022-10-08T10:00:05.329Z,46
2022-10-08T10:02:34.533Z,46
2022-10-08T10:05:05.637Z,45
2022-10-08T10:07:36.740Z,46
2022-10-08T10:10:07.662Z,45
2022-10-08T10:12:38.719Z,45
2022-10-08T10:15:08.470Z,45
2022-10-08T10:17:38.942Z,46
2022-10-08T10:20:08.565Z,46
2022-10-08T10:22:39.422Z,45
2022-10-08T10:25:10.273Z,45
2022-10-08T10:27:42.612Z,45
2022-10-08T10:30:13.701Z,46
2022-10-08T10:32:44.880Z,45
2022-10-08T10:35:15.376Z,46
2022-10-08T10:37:45.877Z,45
2022-10-08T10:40:18.087Z,46
2022-10-08T10:42:50.469Z,46
2022-10-08T10:45:21.294Z,46
2022-10-08T10:47:50.345Z,46
2022-10-08T10:50:21.608Z,45
2022-10-08T10:52:52.726Z,46
2022-10-08T10:55:22.063Z,45
2022-10-08T10:57:54.020Z,45
2022-10-08T11:00:26.307Z,44
2022-10-08T11:02:56.996Z,44
2022-10-08T11:05:28.704Z,44
2022-10-08T11:07:59.854Z,43
2022-10-08T11:10:30.768Z,42
2022-10-08T11:13:01.327Z,43
2022-10-08T11:15:31.516Z,43
2022-10-08T11:18:02.379Z,42
2022-10-08T11:20:31.619Z,42
2022-10-08T11:23:03.357Z,43
2022-10-08T11:25:44.826Z,42
2022-10-08T11:28:06.929Z,43
2022-10-08T11:30:38.042Z,43
2022-10-08T11:33:08.999Z,42
2022-10-08T11:35:39.809Z,42
2022-10-08T11:38:11.291Z,42
2022-10-08T11:40:42.462Z,43
2022-10-08T11:43:13.863Z,42
2022-10-08T11:45:44.721Z,41
2022-10-08T11:48:15.151Z,42
2022-10-08T11:50:46.003Z,42
2022-10-08T11:53:18.770Z,42
2022-10-08T11:55:49.933Z,42
2022-10-08T11:58:20.477Z,42
2022-10-08T12:00:51.909Z,42
2022-10-08T12:03:23.648Z,42
2022-10-08T12:05:52.891Z,43
2022-10-08T12:08:24.224Z,44
2022-10-08T12:10:54.636Z,44
2022-10-08T12:13:25.224Z,43
2022-10-08T12:15:55.830Z,43
2022-10-08T12:18:27.292Z,44
2022-10-08T12:20:58.491Z,43
2022-10-08T12:23:29.727Z,42
2022-10-08T12:26:00.683Z,42
2022-10-08T12:28:31.440Z,43
2022-10-08T12:31:02.701Z,43
2022-10-08T12:33:33.113Z,43
2022-10-08T12:36:03.958Z,43
2022-10-08T12:38:40.701Z,42
2022-10-08T12:41:13.810Z,44
2022-10-08T12:43:44.588Z,44
2022-10-08T12:46:15.178Z,44
2022-10-08T12:48:46.337Z,44
2022-10-08T12:51:17.899Z,44
2022-10-08T12:53:48.413Z,43
2022-10-08T12:56:19.522Z,43
2022-10-08T12:58:51.753Z,44
2022-10-08T13:01:23.565Z,43
2022-10-08T13:03:56.089Z,43
2022-10-08T13:06:29.315Z,42
2022-10-08T13:08:58.656Z,42
2022-10-08T13:11:29.533Z,42
2022-10-08T13:14:03.297Z,42
2022-10-08T13:16:35.764Z,42
2022-10-08T13:19:07.649Z,43
2022-10-08T13:21:38.953Z,41
2022-10-08T13:24:09.651Z,42
2022-10-08T13:26:40.534Z,41
2022-10-08T13:29:12.037Z,44
2022-10-08T13:31:43.661Z,42
2022-10-08T13:34:17.166Z,42
2022-10-08T13:36:48.603Z,43
2022-10-08T13:39:21.858Z,43
2022-10-08T13:41:55.087Z,42
2022-10-08T13:44:26.741Z,43
2022-10-08T13:47:01.444Z,43
2022-10-08T13:49:28.865Z,44
2022-10-08T13:52:00.072Z,45
2022-10-08T13:54:31.029Z,44
2022-10-08T13:57:01.606Z,44
2022-10-08T13:59:36.977Z,43
2022-10-08T14:02:07.718Z,44
2022-10-08T14:04:37.603Z,46
2022-10-08T14:07:08.746Z,45
2022-10-08T14:09:39.106Z,44
2022-10-08T14:12:08.416Z,44
2022-10-08T14:14:40.036Z,45
2022-10-08T14:17:15.921Z,46
2022-10-08T14:19:47.409Z,45
2022-10-08T14:22:19.384Z,46
2022-10-08T14:24:52.884Z,47
2022-10-08T14:27:24.427Z,46
2022-10-08T14:29:55.195Z,46
2022-10-08T14:32:29.935Z,45
2022-10-08T14:35:01.263Z,45
2022-10-08T14:37:32.630Z,45
2022-10-08T14:40:03.999Z,46
2022-10-08T14:42:37.218Z,45
2022-10-08T14:45:08.914Z,46
2022-10-08T14:47:40.076Z,46
2022-10-08T14:50:11.157Z,47
2022-10-08T14:52:44.244Z,47
2022-10-08T14:55:11.829Z,47
2022-10-08T14:57:42.911Z,45
2022-10-08T15:00:14.696Z,46
2022-10-08T15:02:52.291Z,45
2022-10-08T15:05:24.737Z,45
2022-10-08T15:07:57.417Z,46
2022-10-08T15:10:29.113Z,46
2022-10-08T15:13:00.627Z,47
2022-10-08T15:15:31.122Z,47
2022-10-08T15:18:07.210Z,47
2022-10-08T15:20:38.483Z,47
2022-10-08T15:23:10.043Z,48
2022-10-08T15:25:41.150Z,49
2022-10-08T15:28:13.496Z,49
2022-10-08T15:30:44.770Z,50
2022-10-08T15:33:17.459Z,50
2022-10-08T15:35:48.404Z,50
2022-10-08T15:38:19.702Z,51
2022-10-08T15:40:50.743Z,51
2022-10-08T15:43:21.892Z,51
2022-10-08T15:45:54.513Z,52
2022-10-08T15:48:25.588Z,51
2022-10-08T15:50:57.717Z,51
2022-10-08T15:53:31.307Z,52
2022-10-08T15:56:03.450Z,52
2022-10-08T15:58:49.730Z,52
2022-10-08T16:01:03.402Z,52
2022-10-08T16:03:34.417Z,52
2022-10-08T16:06:05.793Z,53
2022-10-08T16:08:37.206Z,53
2022-10-08T16:11:09.011Z,53
2022-10-08T16:13:40.195Z,53
2022-10-08T16:16:15.247Z,54
2022-10-08T16:18:45.792Z,54
2022-10-08T16:21:16.987Z,54
2022-10-08T16:23:48.555Z,54
2022-10-08T16:26:22.008Z,54
2022-10-08T16:28:53.707Z,55
2022-10-08T16:31:25.239Z,55
2022-10-08T16:33:56.282Z,55
2022-10-08T16:36:27.610Z,56
2022-10-08T16:38:59.731Z,57
2022-10-08T16:41:32.308Z,58
2022-10-08T16:44:07.417Z,58
2022-10-08T16:46:36.257Z,59
2022-10-08T16:49:08.857Z,59
2022-10-08T16:51:39.686Z,60
2022-10-08T16:54:10.748Z,59
2022-10-08T16:56:42.055Z,60
2022-10-08T16:59:18.776Z,60
2022-10-08T17:01:49.574Z,60
2022-10-08T17:04:22.105Z,61
2022-10-08T17:07:00.933Z,61
2022-10-08T17:09:32.284Z,61
2022-10-08T17:12:04.112Z,61
2022-10-08T17:14:36.220Z,62
2022-10-08T17:17:07.695Z,62
2022-10-08T17:19:39.133Z,62
2022-10-08T17:22:10.633Z,62
2022-10-08T17:24:47.988Z,62
2022-10-08T17:27:21.119Z,64
2022-10-08T17:29:52.133Z,64
2022-10-08T17:32:23.593Z,64
2022-10-08T17:34:56.992Z,64
2022-10-08T17:37:32.641Z,64
2022-10-08T17:40:04.254Z,64
2022-10-08T17:42:37.793Z,65
2022-10-08T17:45:10.865Z,65
2022-10-08T17:47:44.145Z,65
2022-10-08T17:50:15.624Z,65
2022-10-08T17:52:45.820Z,66
2022-10-08T17:55:17.307Z,65
2022-10-08T17:57:51.227Z,66
2022-10-08T18:00:22.245Z,66
2022-10-08T18:02:53.401Z,66
2022-10-08T18:05:24.875Z,65
2022-10-08T18:07:56.303Z,65
2022-10-08T18:10:31.081Z,65
2022-10-08T18:13:03.309Z,66
2022-10-08T18:15:35.783Z,66
2022-10-08T18:18:08.047Z,66
2022-10-08T18:20:39.937Z,66
2022-10-08T18:23:11.424Z,66
2022-10-08T18:25:43.867Z,66
2022-10-08T18:28:15.199Z,66
2022-10-08T18:30:48.876Z,65
2022-10-08T18:33:24.033Z,66
2022-10-08T18:35:51.717Z,66
2022-10-08T18:38:23.192Z,66
2022-10-08T18:40:54.410Z,66
2022-10-08T18:43:24.864Z,66
2022-10-08T18:45:56.619Z,66
2022-10-08T18:48:26.601Z,66
2022-10-08T18:50:57.755Z,66
2022-10-08T18:53:29.911Z,66
2022-10-08T18:56:04.266Z,66
2022-10-08T18:58:37.441Z,67
2022-10-08T19:01:09.250Z,67
2022-10-08T19:03:40.829Z,67
2022-10-08T19:06:14.877Z,67
2022-10-08T19:08:45.855Z,66
2022-10-08T19:11:17.758Z,66
2022-10-08T19:13:50.320Z,66
2022-10-08T19:16:23.087Z,67
2022-10-08T19:18:53.837Z,66
2022-10-08T19:21:25.850Z,66
2022-10-08T19:23:57.694Z,66
2022-10-08T19:26:31.201Z,66
2022-10-08T19:29:03.345Z,66
2022-10-08T19:31:35.173Z,66
2022-10-08T19:34:06.768Z,66
2022-10-08T19:36:38.412Z,66
2022-10-08T19:39:11.162Z,67
2022-10-08T19:41:41.410Z,67
2022-10-08T19:44:12.266Z,67
2022-10-08T19:46:44.043Z,67
2022-10-08T19:49:16.060Z,67
2022-10-08T19:51:47.578Z,67
2022-10-08T19:54:18.700Z,67
2022-10-08T19:56:54.311Z,67
2022-10-08T19:59:25.871Z,67
2022-10-08T20:01:59.044Z,67
2022-10-08T20:04:28.723Z,67
2022-10-08T20:07:01.181Z,67
2022-10-08T20:09:33.327Z,67
2022-10-08T20:12:04.711Z,68
2022-10-08T20:14:36.238Z,67
2022-10-08T20:17:07.742Z,67
2022-10-08T20:19:39.234Z,67
2022-10-08T20:22:11.906Z,68
2022-10-08T20:24:41.727Z,68
2022-10-08T20:27:11.218Z,68
2022-10-08T20:29:42.431Z,68
2022-10-08T20:32:14.872Z,69
2022-10-08T20:34:48.105Z,69
2022-10-08T20:37:19.610Z,69
2022-10-08T20:39:52.027Z,69
2022-10-08T20:42:23.386Z,69
2022-10-08T20:44:54.367Z,69
2022-10-08T20:47:25.467Z,69
2022-10-08T20:49:56.813Z,69
2022-10-08T20:52:29.972Z,69
2022-10-08T20:55:01.702Z,69
2022-10-08T20:57:32.903Z,69
2022-10-08T21:00:04.826Z,70
2022-10-08T21:02:37.609Z,69
2022-10-08T21:05:08.171Z,69
2022-10-08T21:07:40.057Z,69
2022-10-08T21:10:10.428Z,69
2022-10-08T21:12:41.540Z,69
2022-10-08T21:15:13.898Z,70
2022-10-08T21:17:47.335Z,70
2022-10-08T21:20:19.018Z,70
2022-10-08T21:22:51.853Z,70
2022-10-08T21:25:24.935Z,70
2022-10-08T21:27:55.989Z,70
2022-10-08T21:30:27.324Z,70
2022-10-08T21:32:58.808Z,70
2022-10-08T21:35:32.177Z,70
2022-10-08T21:38:07.722Z,70
2022-10-08T21:40:39.657Z,70
2022-10-08T21:43:10.996Z,70
2022-10-08T21:45:41.915Z,70
2022-10-08T21:48:12.197Z,70
2022-10-08T21:50:43.504Z,71
2022-10-08T21:53:15.656Z,71
2022-10-08T21:55:46.780Z,71
2022-10-08T21:58:17.884Z,71
2022-10-08T22:00:49.949Z,71
2022-10-08T22:03:20.692Z,71
2022-10-08T22:05:51.810Z,71
2022-10-08T22:08:23.002Z,71
2022-10-08T22:10:53.451Z,71
2022-10-08T22:13:26.144Z,71
2022-10-08T22:15:58.546Z,71
2022-10-08T22:18:30.318Z,72
2022-10-08T22:21:00.977Z,71
2022-10-08T22:23:31.559Z,71
2022-10-08T22:26:02.655Z,71
2022-10-08T22:28:34.106Z,72
2022-10-08T22:31:04.349Z,72
2022-10-08T22:33:40.814Z,71
2022-10-08T22:36:11.932Z,71
2022-10-08T22:38:42.585Z,72
2022-10-08T22:41:14.005Z,72
2022-10-08T22:43:49.951Z,72
2022-10-08T22:46:21.882Z,72
2022-10-08T22:48:54.261Z,72
2022-10-08T22:51:26.077Z,72
2022-10-08T22:53:57.408Z,72
2022-10-08T22:56:28.661Z,72
2022-10-08T22:59:02.191Z,72
2022-10-08T23:01:33.087Z,71
2022-10-08T23:04:03.893Z,71
2022-10-08T23:06:35.092Z,72
2022-10-08T23:09:07.742Z,72
2022-10-08T23:11:39.150Z,72
2022-10-08T23:14:10.444Z,72
2022-10-08T23:16:41.401Z,72
2022-10-08T23:19:12.732Z,72
2022-10-08T23:21:44.496Z,72
2022-10-08T23:24:14.339Z,72
2022-10-08T23:26:45.177Z,72
2022-10-08T23:29:16.214Z,72
2022-10-08T23:31:47.108Z,72
2022-10-08T23:34:19.609Z,72
2022-10-08T23:36:51.369Z,72
2022-10-08T23:39:22.167Z,72
2022-10-08T23:41:53.581Z,72
2022-10-08T23:44:24.269Z,72
2022-10-08T23:46:55.598Z,72
2022-10-08T23:49:26.519Z,72
2022-10-08T23:51:58.351Z,72
2022-10-08T23:54:27.719Z,72
2022-10-08T23:56:57.391Z,72
2022-10-08T23:59:29.469Z,73
